Pa Furnace, Pennsylvania
Current Conditions -  °F | °C
As of 12:53 PM on Friday 31 Oct 2014 (Local Time) from KUNV Reporting Station
Overcast Overcast  
Wind Chill: 42°   Ceiling: 5000
Heat Index: 45°   Visibility: 10mi
Dew Point: 36°   Wind: 5mph
Humidity: 71%   Direction: NA
Pressure: 29.92"   Gusts: NA
Location:  40.7134°N, 77.9879°W
Report Text: KUNV 311653Z VRB04KT 10SM OVC050 07/02 A2992
Loading
Personal Weather Stations






























Interactive Weather Map
Tropical Storm Tracking
New forecast layout! Learn more

10-Day Weather Forecast

Advertisements
Track Severe Weather on mobile